CCDAZ SCEL-SCPC
Flight info
| Callsign | CCDAZ |
|---|---|
| Flight time | 1h 6m |
| Altitude | 41000 |
| Route | ANGOD6C ANGOD UQ803 MUBIL |
| Aircraft | C25B/M-SDE2E3FGHRWXY/LB1 |
Departure
| Time | 2026-04-23 15:33 |
|---|---|
| Airport | Comodoro Arturo Merino Benítez International Airport (SCEL) |
Arrival
| Time | 2026-04-23 16:40 |
|---|---|
| Airport | Pucón Airport (SCPC) |
| Time | Latitude | Longitude | Altitude | Speed | Heading |
|---|---|---|---|---|---|
| 2026-04-23 15:20 | -33.39223 | -70.79204 | 1559 ft | 0 kts | 360° |
| 2026-04-23 15:30 | -33.39221 | -70.79204 | 1559 ft | 2 kts | 2° |
| 2026-04-23 15:30 | -33.39208 | -70.79172 | 1559 ft | 6 kts | 96° |
| 2026-04-23 15:30 | -33.39244 | -70.79144 | 1559 ft | 7 kts | 178° |
| 2026-04-23 15:31 | -33.39300 | -70.79141 | 1559 ft | 8 kts | 161° |
| 2026-04-23 15:31 | -33.39311 | -70.79076 | 1559 ft | 9 kts | 87° |
| 2026-04-23 15:31 | -33.39310 | -70.78993 | 1559 ft | 11 kts | 89° |
| 2026-04-23 15:31 | -33.39307 | -70.78900 | 1559 ft | 12 kts | 87° |
| 2026-04-23 15:32 | -33.39301 | -70.78797 | 1559 ft | 13 kts | 78° |
| 2026-04-23 15:32 | -33.39239 | -70.78723 | 1559 ft | 14 kts | 24° |
| 2026-04-23 15:32 | -33.39148 | -70.78674 | 1559 ft | 15 kts | 24° |
| 2026-04-23 15:32 | -33.39080 | -70.78615 | 1559 ft | 10 kts | 84° |
| 2026-04-23 15:33 | -33.39116 | -70.78588 | 1559 ft | 5 kts | 177° |
| 2026-04-23 15:33 | -33.39218 | -70.78579 | 1559 ft | 49 kts | 176° |
| 2026-04-23 15:33 | -33.39953 | -70.78537 | 1681 ft | 150 kts | 178° |
| 2026-04-23 15:33 | -33.41172 | -70.78501 | 2384 ft | 198 kts | 178° |
| 2026-04-23 15:34 | -33.42650 | -70.78416 | 3387 ft | 231 kts | 176° |
| 2026-04-23 15:34 | -33.43777 | -70.78330 | 4154 ft | 247 kts | 176° |
| 2026-04-23 15:34 | -33.45559 | -70.78215 | 5402 ft | 268 kts | 178° |
| 2026-04-23 15:34 | -33.47453 | -70.78092 | 6620 ft | 275 kts | 177° |
| 2026-04-23 15:35 | -33.49389 | -70.77959 | 7517 ft | 281 kts | 178° |
| 2026-04-23 15:35 | -33.51349 | -70.77856 | 8442 ft | 284 kts | 178° |
| 2026-04-23 15:35 | -33.53329 | -70.77751 | 9001 ft | 299 kts | 181° |
| 2026-04-23 15:35 | -33.55463 | -70.78249 | 9008 ft | 327 kts | 197° |
| 2026-04-23 15:36 | -33.57758 | -70.78914 | 9027 ft | 350 kts | 192° |
| 2026-04-23 15:36 | -33.60161 | -70.79600 | 9442 ft | 350 kts | 198° |
| 2026-04-23 15:36 | -33.62407 | -70.80369 | 10898 ft | 322 kts | 193° |
| 2026-04-23 15:36 | -33.64509 | -70.80896 | 12362 ft | 300 kts | 194° |
| 2026-04-23 15:37 | -33.66552 | -70.81521 | 13152 ft | 306 kts | 197° |
| 2026-04-23 15:37 | -33.68615 | -70.82198 | 13956 ft | 309 kts | 197° |
| 2026-04-23 15:37 | -33.70704 | -70.82858 | 14729 ft | 312 kts | 196° |
| 2026-04-23 15:37 | -33.72824 | -70.83504 | 15487 ft | 316 kts | 197° |
| 2026-04-23 15:38 | -33.74961 | -70.84171 | 16242 ft | 319 kts | 197° |
| 2026-04-23 15:38 | -33.77120 | -70.84843 | 16972 ft | 323 kts | 198° |
| 2026-04-23 15:38 | -33.79304 | -70.85526 | 17706 ft | 326 kts | 198° |
| 2026-04-23 15:38 | -33.81518 | -70.86215 | 18427 ft | 329 kts | 198° |
| 2026-04-23 15:39 | -33.83747 | -70.86909 | 19151 ft | 332 kts | 199° |
| 2026-04-23 15:39 | -33.85990 | -70.87610 | 19872 ft | 335 kts | 199° |
| 2026-04-23 15:39 | -33.88257 | -70.88320 | 20523 ft | 338 kts | 199° |
| 2026-04-23 15:39 | -33.90550 | -70.89036 | 21199 ft | 341 kts | 199° |
| 2026-04-23 15:40 | -33.92826 | -70.89748 | 21822 ft | 344 kts | 200° |
| 2026-04-23 15:40 | -33.95162 | -70.90474 | 22475 ft | 348 kts | 199° |
| 2026-04-23 15:40 | -33.97516 | -70.91216 | 23113 ft | 351 kts | 200° |
| 2026-04-23 15:40 | -33.99885 | -70.91959 | 23756 ft | 353 kts | 200° |
| 2026-04-23 15:41 | -34.02278 | -70.92679 | 24308 ft | 356 kts | 198° |
| 2026-04-23 15:41 | -34.04708 | -70.93323 | 24863 ft | 359 kts | 198° |
| 2026-04-23 15:41 | -34.07148 | -70.93988 | 25507 ft | 359 kts | 198° |
| 2026-04-23 15:41 | -34.09570 | -70.94653 | 26252 ft | 356 kts | 198° |
| 2026-04-23 15:42 | -34.11983 | -70.95307 | 26973 ft | 355 kts | 198° |
| 2026-04-23 15:42 | -34.14390 | -70.95958 | 27716 ft | 353 kts | 198° |
| 2026-04-23 15:42 | -34.16784 | -70.96614 | 28468 ft | 351 kts | 198° |
| 2026-04-23 15:42 | -34.19162 | -70.97261 | 29194 ft | 350 kts | 198° |
| 2026-04-23 15:43 | -34.21532 | -70.97905 | 29980 ft | 348 kts | 198° |
| 2026-04-23 15:43 | -34.23889 | -70.98545 | 30719 ft | 346 kts | 198° |
| 2026-04-23 15:43 | -34.26234 | -70.99193 | 31430 ft | 346 kts | 199° |
| 2026-04-23 15:43 | -34.28550 | -70.99821 | 32125 ft | 345 kts | 199° |
| 2026-04-23 15:44 | -34.30893 | -71.00459 | 32798 ft | 345 kts | 199° |
| 2026-04-23 15:44 | -34.33235 | -71.01100 | 33454 ft | 345 kts | 199° |
| 2026-04-23 15:44 | -34.35575 | -71.01741 | 34103 ft | 345 kts | 200° |
| 2026-04-23 15:44 | -34.37915 | -71.02379 | 34726 ft | 344 kts | 200° |
| 2026-04-23 15:45 | -34.40257 | -71.03021 | 35320 ft | 345 kts | 200° |
| 2026-04-23 15:45 | -34.42603 | -71.03665 | 35840 ft | 347 kts | 200° |
| 2026-04-23 15:45 | -34.44961 | -71.04308 | 36424 ft | 346 kts | 201° |
| 2026-04-23 15:45 | -34.47317 | -71.04958 | 36956 ft | 348 kts | 201° |
| 2026-04-23 15:46 | -34.49677 | -71.05602 | 37549 ft | 346 kts | 201° |
| 2026-04-23 15:46 | -34.52021 | -71.06246 | 38143 ft | 345 kts | 201° |
| 2026-04-23 15:46 | -34.54359 | -71.06889 | 38680 ft | 344 kts | 202° |
| 2026-04-23 15:46 | -34.56699 | -71.07536 | 39125 ft | 346 kts | 201° |
| 2026-04-23 15:47 | -34.59028 | -71.08173 | 39598 ft | 347 kts | 202° |
| 2026-04-23 15:47 | -34.61382 | -71.08819 | 40114 ft | 347 kts | 202° |
| 2026-04-23 15:47 | -34.63733 | -71.09466 | 40604 ft | 346 kts | 202° |
| 2026-04-23 15:47 | -34.66083 | -71.10117 | 41051 ft | 347 kts | 202° |
| 2026-04-23 15:48 | -34.68458 | -71.10777 | 41193 ft | 355 kts | 202° |
| 2026-04-23 15:48 | -34.73332 | -71.12098 | 41210 ft | 362 kts | 200° |
| 2026-04-23 15:49 | -34.78296 | -71.13290 | 41220 ft | 366 kts | 200° |
| 2026-04-23 15:49 | -34.83314 | -71.14516 | 41221 ft | 370 kts | 200° |
| 2026-04-23 15:50 | -34.88382 | -71.15744 | 41222 ft | 373 kts | 200° |
| 2026-04-23 15:50 | -34.93485 | -71.16986 | 41222 ft | 375 kts | 200° |
| 2026-04-23 15:51 | -34.98629 | -71.18239 | 41221 ft | 377 kts | 200° |
| 2026-04-23 15:51 | -35.03757 | -71.19491 | 41222 ft | 379 kts | 200° |
| 2026-04-23 15:52 | -35.08935 | -71.20757 | 41222 ft | 380 kts | 199° |
| 2026-04-23 15:52 | -35.14128 | -71.22025 | 41219 ft | 381 kts | 199° |
| 2026-04-23 15:53 | -35.19339 | -71.23302 | 41221 ft | 382 kts | 199° |
| 2026-04-23 15:53 | -35.24558 | -71.24581 | 41221 ft | 383 kts | 199° |
| 2026-04-23 15:54 | -35.29781 | -71.25863 | 41220 ft | 383 kts | 199° |
| 2026-04-23 15:54 | -35.35009 | -71.27149 | 41220 ft | 383 kts | 199° |
| 2026-04-23 15:55 | -35.40245 | -71.28439 | 41219 ft | 384 kts | 199° |
| 2026-04-23 15:55 | -35.45487 | -71.29732 | 41221 ft | 384 kts | 199° |
| 2026-04-23 15:56 | -35.50727 | -71.31024 | 41221 ft | 384 kts | 199° |
| 2026-04-23 15:56 | -35.55932 | -71.32311 | 41222 ft | 384 kts | 199° |
| 2026-04-23 15:57 | -35.61166 | -71.33611 | 41216 ft | 383 kts | 199° |
| 2026-04-23 15:57 | -35.66394 | -71.34910 | 41220 ft | 384 kts | 199° |
| 2026-04-23 15:58 | -35.71629 | -71.36209 | 41220 ft | 384 kts | 199° |
| 2026-04-23 15:58 | -35.76860 | -71.37512 | 41221 ft | 384 kts | 199° |
| 2026-04-23 15:59 | -35.82101 | -71.38818 | 41221 ft | 384 kts | 199° |
| 2026-04-23 15:59 | -35.87335 | -71.40127 | 41222 ft | 384 kts | 199° |
| 2026-04-23 16:00 | -35.92572 | -71.41435 | 41224 ft | 384 kts | 199° |
| 2026-04-23 16:00 | -35.97769 | -71.42734 | 41225 ft | 384 kts | 199° |
| 2026-04-23 16:01 | -36.03010 | -71.44050 | 41226 ft | 384 kts | 199° |
| 2026-04-23 16:01 | -36.08236 | -71.45362 | 41228 ft | 383 kts | 199° |
| 2026-04-23 16:02 | -36.13462 | -71.46676 | 41228 ft | 384 kts | 199° |
| 2026-04-23 16:02 | -36.18693 | -71.47990 | 41227 ft | 383 kts | 199° |
| 2026-04-23 16:03 | -36.23913 | -71.49307 | 41227 ft | 382 kts | 199° |
| 2026-04-23 16:03 | -36.29126 | -71.50623 | 41225 ft | 382 kts | 199° |
| 2026-04-23 16:04 | -36.34342 | -71.51942 | 41226 ft | 382 kts | 199° |
| 2026-04-23 16:04 | -36.39553 | -71.53259 | 41225 ft | 382 kts | 199° |
| 2026-04-23 16:05 | -36.43880 | -71.54356 | 41238 ft | 382 kts | 199° |
| 2026-04-23 16:05 | -36.49968 | -71.55900 | 41236 ft | 382 kts | 199° |
| 2026-04-23 16:06 | -36.55184 | -71.57227 | 41234 ft | 382 kts | 199° |
| 2026-04-23 16:06 | -36.60393 | -71.58550 | 41236 ft | 382 kts | 199° |
| 2026-04-23 16:07 | -36.65593 | -71.59875 | 41239 ft | 381 kts | 199° |
| 2026-04-23 16:07 | -36.70788 | -71.61200 | 41236 ft | 381 kts | 199° |
| 2026-04-23 16:08 | -36.75951 | -71.62521 | 41241 ft | 381 kts | 199° |
| 2026-04-23 16:08 | -36.81149 | -71.63849 | 41242 ft | 381 kts | 199° |
| 2026-04-23 16:09 | -36.86345 | -71.65183 | 41245 ft | 381 kts | 199° |
| 2026-04-23 16:09 | -36.91547 | -71.66516 | 41243 ft | 381 kts | 199° |
| 2026-04-23 16:10 | -36.96748 | -71.67853 | 41244 ft | 382 kts | 199° |
| 2026-04-23 16:10 | -37.01946 | -71.69189 | 41257 ft | 381 kts | 199° |
| 2026-04-23 16:11 | -37.07141 | -71.70529 | 41256 ft | 381 kts | 199° |
| 2026-04-23 16:11 | -37.12338 | -71.71869 | 41256 ft | 381 kts | 199° |
| 2026-04-23 16:12 | -37.17536 | -71.73211 | 41266 ft | 381 kts | 199° |
| 2026-04-23 16:12 | -37.22732 | -71.74557 | 41265 ft | 381 kts | 199° |
| 2026-04-23 16:13 | -37.27904 | -71.75897 | 41267 ft | 382 kts | 199° |
| 2026-04-23 16:13 | -37.35700 | -71.77920 | 41270 ft | 382 kts | 199° |
| 2026-04-23 16:14 | -37.40904 | -71.79274 | 41273 ft | 382 kts | 199° |
| 2026-04-23 16:14 | -37.46101 | -71.80626 | 41283 ft | 382 kts | 199° |
| 2026-04-23 16:15 | -37.51314 | -71.81985 | 41290 ft | 382 kts | 199° |
| 2026-04-23 16:15 | -37.56514 | -71.83344 | 41289 ft | 382 kts | 199° |
| 2026-04-23 16:16 | -37.61724 | -71.84705 | 41285 ft | 382 kts | 199° |
| 2026-04-23 16:16 | -37.66920 | -71.86068 | 41285 ft | 381 kts | 199° |
| 2026-04-23 16:17 | -37.72085 | -71.87430 | 41284 ft | 380 kts | 200° |
| 2026-04-23 16:17 | -37.77206 | -71.89040 | 41289 ft | 379 kts | 201° |
| 2026-04-23 16:18 | -37.82335 | -71.90623 | 41289 ft | 379 kts | 201° |
| 2026-04-23 16:18 | -37.87461 | -71.92228 | 41268 ft | 380 kts | 201° |
| 2026-04-23 16:19 | -37.90065 | -71.93047 | 40010 ft | 395 kts | 200° |
| 2026-04-23 16:19 | -37.92778 | -71.93895 | 38955 ft | 403 kts | 200° |
| 2026-04-23 16:19 | -37.95471 | -71.94728 | 38429 ft | 393 kts | 199° |
| 2026-04-23 16:19 | -37.98101 | -71.95539 | 37894 ft | 385 kts | 200° |
| 2026-04-23 16:20 | -38.00670 | -71.96349 | 37315 ft | 377 kts | 200° |
| 2026-04-23 16:20 | -38.03204 | -71.97150 | 36695 ft | 372 kts | 199° |
| 2026-04-23 16:20 | -38.05700 | -71.97932 | 36076 ft | 367 kts | 199° |
| 2026-04-23 16:20 | -38.08169 | -71.98705 | 35453 ft | 364 kts | 199° |
| 2026-04-23 16:21 | -38.10625 | -71.99479 | 34728 ft | 363 kts | 199° |
| 2026-04-23 16:21 | -38.13077 | -72.00249 | 33983 ft | 363 kts | 199° |
| 2026-04-23 16:21 | -38.14700 | -72.00761 | 33490 ft | 362 kts | 199° |
| 2026-04-23 16:21 | -38.17966 | -72.01785 | 32497 ft | 360 kts | 198° |
| 2026-04-23 16:22 | -38.19574 | -72.02290 | 32005 ft | 359 kts | 198° |
| 2026-04-23 16:22 | -38.21993 | -72.03056 | 31261 ft | 357 kts | 198° |
| 2026-04-23 16:22 | -38.24399 | -72.03813 | 30519 ft | 354 kts | 198° |
| 2026-04-23 16:22 | -38.26779 | -72.04565 | 29776 ft | 350 kts | 198° |
| 2026-04-23 16:23 | -38.29136 | -72.05306 | 28973 ft | 348 kts | 198° |
| 2026-04-23 16:23 | -38.31498 | -72.06053 | 27924 ft | 352 kts | 198° |
| 2026-04-23 16:23 | -38.33888 | -72.06814 | 26695 ft | 358 kts | 198° |
| 2026-04-23 16:23 | -38.36291 | -72.07573 | 25411 ft | 362 kts | 198° |
| 2026-04-23 16:24 | -38.38747 | -72.08349 | 24167 ft | 364 kts | 197° |
| 2026-04-23 16:24 | -38.41195 | -72.09120 | 22988 ft | 361 kts | 197° |
| 2026-04-23 16:24 | -38.43620 | -72.09890 | 21808 ft | 358 kts | 198° |
| 2026-04-23 16:24 | -38.46026 | -72.10653 | 20624 ft | 354 kts | 198° |
| 2026-04-23 16:25 | -38.48407 | -72.11410 | 19440 ft | 351 kts | 198° |
| 2026-04-23 16:25 | -38.50758 | -72.12155 | 18370 ft | 344 kts | 198° |
| 2026-04-23 16:25 | -38.53057 | -72.12887 | 17377 ft | 336 kts | 199° |
| 2026-04-23 16:25 | -38.55302 | -72.13598 | 16383 ft | 329 kts | 199° |
| 2026-04-23 16:26 | -38.57499 | -72.14307 | 15389 ft | 323 kts | 199° |
| 2026-04-23 16:26 | -38.59662 | -72.14994 | 14393 ft | 317 kts | 199° |
| 2026-04-23 16:26 | -38.61789 | -72.15670 | 13425 ft | 312 kts | 199° |
| 2026-04-23 16:26 | -38.63862 | -72.16336 | 12604 ft | 303 kts | 199° |
| 2026-04-23 16:27 | -38.65888 | -72.16981 | 11780 ft | 296 kts | 199° |
| 2026-04-23 16:27 | -38.67864 | -72.17615 | 10958 ft | 291 kts | 199° |
| 2026-04-23 16:27 | -38.69801 | -72.18233 | 10257 ft | 283 kts | 198° |
| 2026-04-23 16:27 | -38.71692 | -72.18841 | 9575 ft | 277 kts | 197° |
| 2026-04-23 16:28 | -38.73538 | -72.19433 | 8900 ft | 272 kts | 196° |
| 2026-04-23 16:28 | -38.75345 | -72.20009 | 8450 ft | 264 kts | 195° |
| 2026-04-23 16:28 | -38.77126 | -72.20587 | 8099 ft | 272 kts | 196° |
| 2026-04-23 16:28 | -38.78976 | -72.21178 | 7803 ft | 274 kts | 195° |
| 2026-04-23 16:29 | -38.80822 | -72.21769 | 7604 ft | 273 kts | 195° |
| 2026-04-23 16:29 | -38.82666 | -72.22363 | 7401 ft | 272 kts | 195° |
| 2026-04-23 16:29 | -38.84485 | -72.23026 | 7199 ft | 271 kts | 197° |
| 2026-04-23 16:29 | -38.86323 | -72.23574 | 6997 ft | 271 kts | 192° |
| 2026-04-23 16:30 | -38.88165 | -72.24100 | 6801 ft | 271 kts | 195° |
| 2026-04-23 16:30 | -38.90018 | -72.24506 | 6593 ft | 272 kts | 181° |
| 2026-04-23 16:30 | -38.91897 | -72.24214 | 6391 ft | 272 kts | 169° |
| 2026-04-23 16:30 | -38.93656 | -72.23320 | 6183 ft | 274 kts | 151° |
| 2026-04-23 16:31 | -38.95250 | -72.21983 | 5982 ft | 273 kts | 147° |
| 2026-04-23 16:31 | -38.96830 | -72.20626 | 5784 ft | 273 kts | 147° |
| 2026-04-23 16:31 | -38.98434 | -72.19352 | 5581 ft | 271 kts | 156° |
| 2026-04-23 16:31 | -39.00187 | -72.18479 | 5381 ft | 270 kts | 161° |
| 2026-04-23 16:32 | -39.01948 | -72.17632 | 5182 ft | 270 kts | 161° |
| 2026-04-23 16:32 | -39.03721 | -72.16818 | 4983 ft | 270 kts | 161° |
| 2026-04-23 16:32 | -39.05491 | -72.15998 | 4785 ft | 271 kts | 161° |
| 2026-04-23 16:32 | -39.07266 | -72.15180 | 4586 ft | 271 kts | 161° |
| 2026-04-23 16:33 | -39.09038 | -72.14358 | 4388 ft | 271 kts | 161° |
| 2026-04-23 16:33 | -39.10812 | -72.13541 | 4188 ft | 270 kts | 161° |
| 2026-04-23 16:33 | -39.12580 | -72.12729 | 3989 ft | 270 kts | 161° |
| 2026-04-23 16:33 | -39.14356 | -72.11913 | 3790 ft | 271 kts | 161° |
| 2026-04-23 16:34 | -39.16130 | -72.11101 | 3591 ft | 271 kts | 161° |
| 2026-04-23 16:34 | -39.17866 | -72.10310 | 3517 ft | 263 kts | 161° |
| 2026-04-23 16:34 | -39.19567 | -72.09537 | 3513 ft | 255 kts | 161° |
| 2026-04-23 16:34 | -39.21228 | -72.08786 | 3507 ft | 251 kts | 161° |
| 2026-04-23 16:35 | -39.22744 | -72.07753 | 3502 ft | 246 kts | 141° |
| 2026-04-23 16:35 | -39.23806 | -72.06061 | 3500 ft | 244 kts | 115° |
| 2026-04-23 16:35 | -39.24364 | -72.04009 | 3503 ft | 242 kts | 108° |
| 2026-04-23 16:35 | -39.24875 | -72.01947 | 3501 ft | 239 kts | 107° |
| 2026-04-23 16:36 | -39.25326 | -71.99945 | 3428 ft | 227 kts | 105° |
| 2026-04-23 16:36 | -39.25755 | -71.97970 | 2975 ft | 233 kts | 107° |
| 2026-04-23 16:36 | -39.26225 | -71.96023 | 3009 ft | 215 kts | 107° |
| 2026-04-23 16:36 | -39.26599 | -71.94237 | 2948 ft | 200 kts | 104° |
| 2026-04-23 16:37 | -39.26922 | -71.92500 | 2720 ft | 194 kts | 103° |
| 2026-04-23 16:37 | -39.27188 | -71.90899 | 2665 ft | 171 kts | 101° |
| 2026-04-23 16:37 | -39.27375 | -71.89515 | 2617 ft | 145 kts | 98° |
| 2026-04-23 16:37 | -39.27500 | -71.88232 | 2675 ft | 143 kts | 97° |
| 2026-04-23 16:38 | -39.27631 | -71.86949 | 2912 ft | 142 kts | 98° |
| 2026-04-23 16:38 | -39.27948 | -71.85640 | 3203 ft | 159 kts | 127° |
| 2026-04-23 16:38 | -39.28844 | -71.84973 | 2980 ft | 149 kts | 166° |
| 2026-04-23 16:38 | -39.29784 | -71.85318 | 2552 ft | 141 kts | 226° |
| 2026-04-23 16:39 | -39.30017 | -71.86446 | 2124 ft | 128 kts | 277° |
| 2026-04-23 16:39 | -39.29869 | -71.87562 | 1697 ft | 124 kts | 282° |
| 2026-04-23 16:39 | -39.29707 | -71.88595 | 1407 ft | 114 kts | 281° |
| 2026-04-23 16:39 | -39.29554 | -71.89605 | 1165 ft | 114 kts | 282° |
| 2026-04-23 16:40 | -39.29393 | -71.90592 | 962 ft | 109 kts | 282° |
| 2026-04-23 16:40 | -39.29251 | -71.91466 | 893 ft | 83 kts | 282° |
| 2026-04-23 16:40 | -39.29161 | -71.92012 | 862 ft | 46 kts | 282° |
| 2026-04-23 16:40 | -39.29118 | -71.92277 | 847 ft | 25 kts | 282° |
| 2026-04-23 16:41 | -39.29084 | -71.92488 | 843 ft | 23 kts | 282° |
| 2026-04-23 16:41 | -39.29075 | -71.92544 | 840 ft | 0 kts | 281° |